Time;durP1;ratioP1;P1;durP2;ratioP2;P2;SDS_P1;SDS_P2;PMS_P1;PMS_P2;Temp;Humidity;BMP_temperature;BMP_pressure;BME280_temperature;BME280_humidity;BME280_pressure;Samples;Min_cycle;Max_cycle;Signal;HPM_P1;HPM_P2
2022/08/02 00:01:37;;;;;;;4.72;2.63;;;;;;;14.45;67.85;101778.75;5027792;28;20033;-73
2022/08/02 00:04:02;;;;;;;4.95;3.08;;;;;;;14.45;69.07;101778.75;5028626;28;20174;-73
2022/08/02 00:06:27;;;;;;;4.32;2.70;;;;;;;14.49;68.52;101779.53;5028967;28;20036;-73
2022/08/02 00:08:53;;;;;;;5.95;2.65;;;;;;;14.48;68.36;101775.19;5029392;28;20025;-73
2022/08/02 00:11:19;;;;;;;4.93;2.70;;;;;;;14.42;68.33;101774.47;5029555;28;20481;-72
2022/08/02 00:13:44;;;;;;;4.93;2.72;;;;;;;14.36;68.83;101774.63;5023888;28;20049;-72
2022/08/02 00:16:09;;;;;;;4.60;2.70;;;;;;;14.34;68.65;101773.81;5019778;28;20017;-72
2022/08/02 00:18:35;;;;;;;5.55;2.53;;;;;;;14.31;69.29;101784.38;5021823;28;20537;-73
2022/08/02 00:21:00;;;;;;;5.07;2.42;;;;;;;14.32;70.06;101780.84;5026317;28;20025;-75
2022/08/02 00:23:25;;;;;;;4.07;2.40;;;;;;;14.34;68.91;101773.81;5024208;28;20044;-75
2022/08/02 00:25:51;;;;;;;4.07;2.33;;;;;;;14.33;68.27;101776.47;5023551;28;20021;-75
2022/08/02 00:28:16;;;;;;;3.63;2.10;;;;;;;14.28;68.62;101784.44;5022617;28;20044;-72
2022/08/02 00:30:41;;;;;;;3.47;2.22;;;;;;;14.24;69.49;101782.81;5021778;28;20032;-72
2022/08/02 00:33:07;;;;;;;4.25;2.30;;;;;;;14.24;68.25;101781.06;5021781;28;20041;-73
2022/08/02 00:35:33;;;;;;;3.60;2.17;;;;;;;14.24;67.01;101785.41;5020964;28;20123;-72
2022/08/02 00:37:59;;;;;;;5.40;2.20;;;;;;;14.27;68.43;101780.09;5020378;28;20045;-72
2022/08/02 00:40:24;;;;;;;3.58;2.30;;;;;;;14.25;68.15;101771.44;5019403;28;20099;-72
2022/08/02 00:43:05;;;;;;;3.03;2.15;;;;;;;14.24;68.95;101777.56;5022406;28;20100;-73
2022/08/02 00:45:31;;;;;;;5.28;2.30;;;;;;;14.28;69.01;101776.59;5021692;28;20079;-72
2022/08/02 00:47:56;;;;;;;4.18;2.25;;;;;;;14.33;65.03;101774.72;5018436;28;20044;-73
2022/08/02 00:50:22;;;;;;;4.47;2.00;;;;;;;14.39;65.77;101768.47;5022194;28;20021;-72
2022/08/02 00:52:47;;;;;;;5.50;2.85;;;;;;;14.40;66.89;101765.78;5017877;28;20025;-72
2022/08/02 00:55:12;;;;;;;4.80;2.90;;;;;;;14.33;69.46;101764.25;5026724;28;20108;-72
2022/08/02 00:57:38;;;;;;;4.90;2.42;;;;;;;14.32;67.52;101761.66;5019727;28;20040;-72
2022/08/02 01:00:04;;;;;;;4.10;2.03;;;;;;;14.30;65.81;101752.97;5016176;28;20022;-73
2022/08/02 01:02:29;;;;;;;3.17;2.22;;;;;;;14.29;65.77;101746.91;5025812;28;20025;-73
2022/08/02 01:04:54;;;;;;;4.65;2.20;;;;;;;14.30;65.10;101753.84;5027242;28;20032;-73
2022/08/02 01:07:20;;;;;;;6.18;2.42;;;;;;;14.32;64.11;101762.53;5026331;28;20048;-72
2022/08/02 01:09:45;;;;;;;5.82;2.13;;;;;;;14.34;64.14;101752.88;5029644;28;20074;-72
2022/08/02 01:12:11;;;;;;;5.75;1.90;;;;;;;14.39;63.68;101743.13;5028664;28;20051;-73
2022/08/02 01:14:37;;;;;;;3.38;2.20;;;;;;;14.44;63.45;101744.75;5029994;28;20068;-73
2022/08/02 01:17:14;;;;;;;3.63;1.88;;;;;;;14.46;63.83;101738.56;5025732;28;20094;-72
2022/08/02 01:19:56;;;;;;;2.90;1.75;;;;;;;14.45;63.80;101738.63;5027223;28;20056;-73
2022/08/02 01:22:59;;;;;;;3.95;2.00;;;;;;;14.45;64.44;101751.72;5027877;28;20022;-73
2022/08/02 01:25:38;;;;;;;3.83;1.83;;;;;;;14.42;65.48;101745.66;5030545;28;20531;-72
2022/08/02 01:28:24;;;;;;;4.13;1.80;;;;;;;14.38;65.54;101754.50;5025948;28;20087;-72
2022/08/02 01:30:56;;;;;;;7.28;2.13;;;;;;;14.33;66.60;101755.53;5029123;28;20115;-72
2022/08/02 01:33:25;;;;;;;3.83;2.20;;;;;;;14.32;66.73;101753.81;5027777;28;20891;-72
2022/08/02 01:35:54;;;;;;;4.72;2.08;;;;;;;14.33;66.71;101748.53;5029539;28;20033;-73
2022/08/02 01:38:32;;;;;;;4.85;1.80;;;;;;;14.34;67.71;101747.66;5028152;28;20078;-72
2022/08/02 01:41:00;;;;;;;3.85;2.22;;;;;;;14.28;66.90;101739.94;5026930;28;20036;-73
2022/08/02 01:43:28;;;;;;;6.68;2.20;;;;;;;14.24;66.65;101748.78;5026511;28;20144;-72
2022/08/02 01:45:55;;;;;;;4.72;2.28;;;;;;;14.22;67.65;101740.97;5025246;28;20040;-72
2022/08/02 01:48:23;;;;;;;3.67;2.08;;;;;;;14.21;68.62;101735.75;5025768;28;20044;-72
2022/08/02 01:50:50;;;;;;;3.92;1.90;;;;;;;14.21;65.86;101731.41;5027699;28;20097;-73
2022/08/02 01:53:18;;;;;;;7.65;2.10;;;;;;;14.23;67.44;101733.97;5030454;28;20030;-73
2022/08/02 01:55:46;;;;;;;3.17;1.90;;;;;;;14.27;66.28;101733.00;5024253;28;20022;-72
2022/08/02 01:58:15;;;;;;;4.43;2.30;;;;;;;14.28;65.29;101734.72;5026715;28;20048;-72
2022/08/02 02:00:42;;;;;;;3.88;2.10;;;;;;;14.31;65.02;101723.28;5024944;28;20087;-73
2022/08/02 02:03:13;;;;;;;4.70;2.15;;;;;;;14.35;65.04;101720.53;5027098;28;20029;-72
2022/08/02 02:05:39;;;;;;;3.83;2.30;;;;;;;14.36;65.94;101718.81;5023999;28;20067;-72
2022/08/02 02:08:06;;;;;;;8.10;2.70;;;;;;;14.32;66.78;101725.88;5027449;28;20342;-72
2022/08/02 02:10:34;;;;;;;5.35;2.40;;;;;;;14.26;67.37;101726.88;5029181;28;20088;-72
2022/08/02 02:13:06;;;;;;;5.47;2.70;;;;;;;14.24;67.48;101727.84;5026110;28;20033;-72
2022/08/02 02:15:34;;;;;;;5.20;2.38;;;;;;;14.24;67.97;101727.84;5025872;28;20033;-72
2022/08/02 02:18:00;;;;;;;5.43;2.75;;;;;;;14.26;67.75;101718.19;5026702;28;20030;-72
2022/08/02 02:20:25;;;;;;;6.55;2.50;;;;;;;14.30;67.18;101722.44;5028966;28;20055;-72
2022/08/02 02:22:51;;;;;;;4.68;2.30;;;;;;;14.31;66.65;101713.69;5030507;28;20029;-73
2022/08/02 02:25:19;;;;;;;5.85;2.30;;;;;;;14.31;66.44;101703.22;5032010;28;20064;-73
2022/08/02 02:27:56;;;;;;;3.53;2.08;;;;;;;14.33;66.22;101703.16;5032611;28;20025;-72
2022/08/02 02:30:25;;;;;;;4.97;2.30;;;;;;;14.29;66.39;101702.41;5032037;28;20073;-72
2022/08/02 02:32:54;;;;;;;4.45;2.03;;;;;;;14.25;67.68;101704.25;5031156;28;20108;-72
2022/08/02 02:35:21;;;;;;;4.35;2.28;;;;;;;14.21;66.76;101697.38;5031513;28;20029;-72
2022/08/02 02:37:48;;;;;;;7.82;2.40;;;;;;;14.17;66.95;101689.66;5034874;28;20125;-73
2022/08/02 02:40:15;;;;;;;5.32;2.10;;;;;;;14.13;66.49;101683.63;5031124;28;20025;-73
2022/08/02 02:42:41;;;;;;;4.40;2.30;;;;;;;14.11;65.98;101675.84;5026573;28;20025;-73
2022/08/02 02:45:09;;;;;;;3.17;2.28;;;;;;;14.12;65.40;101681.91;5031441;28;20052;-72
2022/08/02 02:47:35;;;;;;;4.15;2.00;;;;;;;14.14;65.06;101689.75;5031486;28;20464;-72
2022/08/02 02:50:01;;;;;;;3.92;1.77;;;;;;;14.16;65.00;101690.56;5028659;28;20510;-72
2022/08/02 02:52:27;;;;;;;4.15;1.70;;;;;;;14.18;65.24;101692.22;5027246;28;20022;-72
2022/08/02 02:54:55;;;;;;;3.83;2.13;;;;;;;14.20;65.07;101686.94;5027278;28;20024;-72
2022/08/02 02:57:21;;;;;;;3.95;2.17;;;;;;;14.21;65.13;101691.28;5027628;28;20475;-72
2022/08/02 02:59:46;;;;;;;6.80;2.20;;;;;;;14.18;65.67;101692.22;5029032;28;20833;-72
2022/08/02 03:02:13;;;;;;;4.95;1.98;;;;;;;14.15;65.73;101691.47;5027970;28;20049;-72
2022/08/02 03:04:40;;;;;;;5.28;1.77;;;;;;;14.11;66.01;101688.03;5026654;28;20029;-72
2022/08/02 03:07:06;;;;;;;3.35;2.03;;;;;;;14.04;67.04;101691.75;5026164;28;20557;-72
2022/08/02 03:09:32;;;;;;;6.63;2.47;;;;;;;13.96;68.50;101687.56;5027320;28;20151;-72
2022/08/02 03:11:57;;;;;;;4.78;2.30;;;;;;;13.94;67.67;101680.66;5029152;28;20160;-73
2022/08/02 03:14:22;;;;;;;4.75;2.28;;;;;;;13.90;69.04;101676.41;5030323;28;20108;-72
2022/08/02 03:16:51;;;;;;;6.05;2.40;;;;;;;13.81;69.01;101682.72;5030596;28;20025;-72
2022/08/02 03:19:18;;;;;;;7.75;2.60;;;;;;;13.73;69.28;101680.31;5026345;28;20037;-72
2022/08/02 03:21:45;;;;;;;5.78;2.47;;;;;;;13.70;70.26;101680.38;5027308;28;20500;-71
2022/08/02 03:24:12;;;;;;;7.82;2.63;;;;;;;13.68;70.22;101681.34;5028396;28;20026;-72
2022/08/02 03:26:37;;;;;;;11.02;2.70;;;;;;;13.62;70.65;101679.75;5026360;28;20025;-72
2022/08/02 03:29:03;;;;;;;7.68;3.17;;;;;;;13.58;71.37;101680.72;5026524;28;20048;-72
2022/08/02 03:31:29;;;;;;;8.23;2.78;;;;;;;13.56;71.46;101687.72;5026365;28;20029;-72
2022/08/02 03:33:55;;;;;;;8.45;2.60;;;;;;;13.55;71.55;101691.22;5026399;28;20033;-72
2022/08/02 03:36:22;;;;;;;10.02;2.90;;;;;;;13.56;71.36;101691.22;5030574;28;20025;-72
2022/08/02 03:38:50;;;;;;;5.90;2.22;;;;;;;13.62;70.35;101687.59;5030451;28;20124;-72
2022/08/02 03:41:17;;;;;;;5.80;2.35;;;;;;;13.68;70.05;101676.94;5026026;28;20029;-72
2022/08/02 03:43:44;;;;;;;5.65;2.58;;;;;;;13.73;69.47;101669.84;5025758;28;20018;-73
2022/08/02 03:46:11;;;;;;;5.05;2.70;;;;;;;13.80;69.11;101671.44;5028732;28;20299;-72
2022/08/02 03:48:37;;;;;;;5.85;2.83;;;;;;;13.90;68.40;101665.94;5025634;28;20115;-72
2022/08/02 03:51:03;;;;;;;5.35;2.70;;;;;;;13.96;68.30;101657.94;5024497;28;20492;-73
2022/08/02 03:53:29;;;;;;;6.38;2.97;;;;;;;13.98;68.35;101660.50;5026885;28;20037;-73
2022/08/02 03:55:55;;;;;;;6.20;2.90;;;;;;;14.00;67.99;101669.16;5024679;28;20420;-72
2022/08/02 03:58:22;;;;;;;4.05;2.60;;;;;;;14.02;68.24;101665.59;5025240;28;20018;-72
2022/08/02 04:00:48;;;;;;;4.38;2.60;;;;;;;14.04;68.20;101671.66;5025647;28;20031;-72
2022/08/02 04:03:14;;;;;;;9.35;2.42;;;;;;;14.02;68.12;101670.84;5024298;28;20021;-72
2022/08/02 04:05:40;;;;;;;7.60;2.70;;;;;;;13.96;68.60;101671.03;5024478;28;20112;-72
2022/08/02 04:08:05;;;;;;;7.18;2.65;;;;;;;13.90;68.40;101665.94;5029054;28;20116;-73
2022/08/02 04:10:31;;;;;;;4.50;2.60;;;;;;;13.87;68.70;101666.88;5026281;28;20026;-73
2022/08/02 04:12:57;;;;;;;4.55;2.35;;;;;;;13.84;68.73;101663.47;5024843;28;20481;-73
2022/08/02 04:15:23;;;;;;;6.32;2.70;;;;;;;13.84;69.00;101660.84;5028128;28;20080;-72
2022/08/02 04:17:55;;;;;;;6.20;2.30;;;;;;;13.85;69.12;101660.84;5025037;28;20033;-72
2022/08/02 04:20:26;;;;;;;5.70;2.35;;;;;;;13.85;69.21;101660.84;5028515;28;20028;-72
2022/08/02 04:22:59;;;;;;;3.83;2.45;;;;;;;13.88;68.61;101665.13;5028804;28;20464;-71
2022/08/02 04:25:25;;;;;;;5.22;2.55;;;;;;;13.91;69.13;101663.31;5032229;28;20459;-72
2022/08/02 04:27:51;;;;;;;5.30;2.40;;;;;;;13.93;69.36;101658.00;5032327;28;20507;-72
2022/08/02 04:30:17;;;;;;;4.03;2.33;;;;;;;13.95;69.30;101661.47;5031634;28;20053;-72
2022/08/02 04:32:44;;;;;;;7.25;2.65;;;;;;;13.96;68.94;101660.56;5032140;28;20028;-72
2022/08/02 04:35:09;;;;;;;5.45;2.92;;;;;;;13.92;69.69;101664.16;5031015;28;20030;-72
2022/08/02 04:37:37;;;;;;;7.05;2.90;;;;;;;13.81;70.28;101664.44;5028602;28;20056;-72
2022/08/02 04:40:08;;;;;;;6.03;2.97;;;;;;;13.85;70.34;101668.69;5028307;28;20053;-73
2022/08/02 04:42:33;;;;;;;5.20;2.40;;;;;;;13.89;70.65;101672.06;5030092;28;20036;-73
2022/08/02 04:44:58;;;;;;;4.20;2.78;;;;;;;13.92;70.13;101674.59;5031336;28;20021;-73
2022/08/02 04:47:24;;;;;;;7.93;2.88;;;;;;;13.93;71.04;101668.47;5030470;28;20029;-73
2022/08/02 04:49:49;;;;;;;5.18;2.90;;;;;;;13.92;70.31;101669.38;5030565;28;20025;-74
2022/08/02 04:52:14;;;;;;;5.25;2.97;;;;;;;13.92;70.62;101665.00;5030548;28;20037;-73
2022/08/02 04:54:40;;;;;;;7.38;3.13;;;;;;;13.92;71.36;101666.75;5030557;28;20104;-73
2022/08/02 04:57:53;;;;;;;5.63;2.97;;;;;;;13.91;71.29;101663.31;5030057;28;20392;-73
2022/08/02 04:59:50;;;;;;;7.55;3.00;;;;;;;13.93;71.79;101660.63;5029511;28;20036;-73
2022/08/02 05:02:15;;;;;;;6.80;3.45;;;;;;;13.95;71.02;101661.47;5030427;28;20033;-73
2022/08/02 05:04:41;;;;;;;6.03;3.40;;;;;;;13.89;71.62;101659.00;5032126;28;20037;-73
2022/08/02 05:07:06;;;;;;;7.20;3.83;;;;;;;13.81;71.98;101660.06;5029511;28;20033;-72
2022/08/02 05:09:31;;;;;;;5.47;3.30;;;;;;;13.78;71.89;101654.03;5029891;28;20025;-73
2022/08/02 05:11:56;;;;;;;6.28;3.47;;;;;;;13.79;71.88;101654.03;5029523;28;20553;-72
2022/08/02 05:14:22;;;;;;;4.13;3.20;;;;;;;13.80;72.60;101650.50;5030751;28;20022;-73
2022/08/02 05:16:47;;;;;;;8.38;3.42;;;;;;;13.85;72.29;101646.88;5030410;28;20025;-73
2022/08/02 05:19:12;;;;;;;7.15;4.00;;;;;;;13.90;72.78;101645.88;5031027;28;20080;-73
2022/08/02 05:21:37;;;;;;;7.28;4.10;;;;;;;13.95;72.72;101653.59;5029620;28;20493;-73
2022/08/02 05:24:03;;;;;;;10.55;4.47;;;;;;;14.01;73.00;101653.41;5029125;28;20025;-74
2022/08/02 05:26:28;;;;;;;10.27;5.20;;;;;;;14.07;73.86;101660.28;5027549;28;20029;-72
2022/08/02 05:28:54;;;;;;;10.85;5.45;;;;;;;14.17;73.45;101639.94;5026745;28;20112;-73
2022/08/02 05:31:19;;;;;;;8.85;5.10;;;;;;;14.31;73.37;101640.41;5026697;28;20433;-73
2022/08/02 05:33:44;;;;;;;8.10;5.00;;;;;;;14.45;73.20;101636.53;5025363;28;20098;-73
2022/08/02 05:36:10;;;;;;;15.35;5.22;;;;;;;14.57;72.73;101646.63;5028939;28;20476;-73
2022/08/02 05:38:35;;;;;;;9.18;5.05;;;;;;;14.69;72.32;101641.03;5028556;28;20106;-73
2022/08/02 05:41:01;;;;;;;9.90;5.20;;;;;;;14.79;72.79;101638.16;5028066;28;20029;-73
2022/08/02 05:43:26;;;;;;;8.85;5.18;;;;;;;14.89;72.15;101641.34;5025867;28;20040;-73
2022/08/02 05:45:52;;;;;;;9.80;5.50;;;;;;;14.96;72.22;101635.88;5028325;28;20025;-73
2022/08/02 05:48:17;;;;;;;11.70;5.32;;;;;;;15.03;72.01;101634.75;5027251;28;20028;-73
2022/08/02 05:50:47;;;;;;;8.18;5.63;;;;;;;15.10;72.52;101635.44;5027300;28;20592;-73
2022/08/02 05:53:44;;;;;;;11.05;5.78;;;;;;;15.20;72.45;101641.22;5026681;28;20021;-73
2022/08/02 05:56:23;;;;;;;11.15;5.90;;;;;;;15.25;72.65;101639.31;5025523;28;20104;-73
2022/08/02 05:59:00;;;;;;;11.55;6.03;;;;;;;15.33;72.54;101642.56;5024950;28;20477;-73
2022/08/02 06:01:37;;;;;;;14.73;6.18;;;;;;;15.41;72.68;101638.81;5025119;28;20029;-73
2022/08/02 06:04:15;;;;;;;9.77;6.10;;;;;;;15.49;72.77;101642.06;5026012;28;20048;-73
2022/08/02 06:06:43;;;;;;;13.00;6.35;;;;;;;15.58;73.00;101651.38;5028781;28;20033;-73
2022/08/02 06:09:14;;;;;;;8.25;6.03;;;;;;;15.67;72.91;101652.81;5025859;28;20511;-72
2022/08/02 06:11:44;;;;;;;11.32;6.85;;;;;;;15.76;72.98;101652.50;5026690;28;20148;-73
2022/08/02 06:14:11;;;;;;;10.73;6.68;;;;;;;15.88;73.52;101654.75;5027903;28;20144;-73
2022/08/02 06:16:38;;;;;;;11.07;6.43;;;;;;;16.02;73.89;101662.13;5024789;28;20065;-73
2022/08/02 06:19:04;;;;;;;9.25;6.53;;;;;;;16.11;72.28;101655.69;5024014;28;20120;-73
2022/08/02 06:21:30;;;;;;;9.27;6.05;;;;;;;16.21;72.80;101657.06;5027705;28;20043;-73
2022/08/02 06:23:57;;;;;;;10.02;6.47;;;;;;;16.30;72.34;101657.63;5027369;28;20392;-73
2022/08/02 06:26:24;;;;;;;10.98;6.55;;;;;;;16.43;73.15;101652.78;5027517;28;20480;-73
2022/08/02 06:28:51;;;;;;;10.63;6.88;;;;;;;16.52;72.38;101648.06;5026662;28;20030;-73
2022/08/02 06:31:16;;;;;;;11.88;6.82;;;;;;;16.57;71.78;101649.66;5028421;28;20124;-73
2022/08/02 06:33:42;;;;;;;9.73;6.72;;;;;;;16.61;73.25;101648.59;5024861;28;20046;-73
2022/08/02 06:36:18;;;;;;;9.70;7.03;;;;;;;16.66;73.34;101633.53;5027656;28;20025;-73
2022/08/02 06:38:53;;;;;;;12.35;7.20;;;;;;;16.77;73.53;101639.22;5028069;28;20539;-73
2022/08/02 06:41:20;;;;;;;9.38;7.05;;;;;;;16.90;73.36;101639.59;5025474;28;20365;-73
2022/08/02 06:43:59;;;;;;;11.05;7.43;;;;;;;17.02;73.12;101642.66;5025549;28;20116;-73
2022/08/02 06:46:24;;;;;;;12.52;7.30;;;;;;;17.14;73.54;101642.19;5028129;28;20033;-73
2022/08/02 06:48:50;;;;;;;11.50;8.45;;;;;;;17.26;73.48;101633.78;5028019;28;20029;-73
2022/08/02 06:51:16;;;;;;;13.38;8.43;;;;;;;17.37;73.82;101635.97;5026387;28;20049;-73
2022/08/02 06:53:41;;;;;;;20.75;9.90;;;;;;;17.47;72.82;101633.81;5025332;28;20025;-73
2022/08/02 06:56:06;;;;;;;13.27;8.60;;;;;;;17.57;71.88;101635.13;5025585;28;20025;-74
2022/08/02 06:58:32;;;;;;;14.48;8.63;;;;;;;17.67;72.50;101632.13;5024643;28;20029;-73
2022/08/02 07:00:57;;;;;;;10.27;8.02;;;;;;;17.77;71.84;101628.16;5026184;28;20544;-73
2022/08/02 07:03:24;;;;;;;11.00;7.68;;;;;;;17.86;70.69;101629.53;5024701;28;20025;-73
2022/08/02 07:05:50;;;;;;;11.70;7.30;;;;;;;17.97;71.34;101637.81;5026957;28;20053;-73
2022/08/02 07:08:16;;;;;;;9.75;7.43;;;;;;;18.03;70.85;101627.03;5031287;28;20055;-73
2022/08/02 07:10:42;;;;;;;13.18;7.25;;;;;;;18.09;69.87;101630.34;5029110;28;20041;-73
2022/08/02 07:13:07;;;;;;;10.40;7.70;;;;;;;18.20;70.17;101626.25;5030628;28;20017;-73
2022/08/02 07:15:33;;;;;;;18.23;7.85;;;;;;;18.30;70.71;101634.59;5030112;28;20063;-74
2022/08/02 07:17:58;;;;;;;9.48;7.15;;;;;;;18.40;70.34;101635.03;5027707;28;20136;-73
2022/08/02 07:20:23;;;;;;;11.40;7.63;;;;;;;18.46;69.05;101633.91;5031232;28;20037;-73
2022/08/02 07:22:49;;;;;;;11.50;7.03;;;;;;;18.58;69.47;101638.63;5030207;28;20376;-73
2022/08/02 07:25:14;;;;;;;9.82;7.80;;;;;;;18.72;69.88;101634.47;5031668;28;20318;-73
2022/08/02 07:27:40;;;;;;;10.25;6.47;;;;;;;18.78;68.40;101636.81;5035949;28;20082;-73
2022/08/02 07:30:06;;;;;;;13.40;7.80;;;;;;;18.85;68.92;101632.94;5034690;28;20088;-73
2022/08/02 07:32:31;;;;;;;11.30;6.82;;;;;;;18.89;68.06;101625.75;5027877;28;20025;-73
2022/08/02 07:34:58;;;;;;;9.93;6.90;;;;;;;18.95;68.26;101631.63;5029783;28;20025;-73
2022/08/02 07:37:25;;;;;;;10.18;7.03;;;;;;;19.01;68.72;101629.59;5028941;28;20488;-73
2022/08/02 07:39:50;;;;;;;9.02;6.68;;;;;;;19.04;68.38;101625.03;5028277;28;20037;-73
2022/08/02 07:42:16;;;;;;;10.07;7.05;;;;;;;19.10;68.64;101621.25;5028457;28;20039;-73
2022/08/02 07:44:41;;;;;;;9.25;6.35;;;;;;;19.17;68.39;101627.06;5028244;28;20091;-73
2022/08/02 07:47:06;;;;;;;11.45;6.55;;;;;;;19.20;68.32;101619.84;5029205;28;20021;-73
2022/08/02 07:49:32;;;;;;;8.85;5.57;;;;;;;19.31;67.04;101621.09;5030185;28;20030;-73
2022/08/02 07:51:57;;;;;;;8.18;5.43;;;;;;;19.39;67.31;101624.22;5028883;28;20088;-73
2022/08/02 07:54:23;;;;;;;8.80;5.07;;;;;;;19.51;66.32;101620.94;5026921;28;20075;-73
2022/08/02 07:56:48;;;;;;;8.20;5.68;;;;;;;19.56;65.65;101624.19;5029439;28;20380;-73
2022/08/02 07:59:14;;;;;;;10.27;5.15;;;;;;;19.69;66.90;101620.91;5028203;28;20087;-73
2022/08/02 08:01:40;;;;;;;8.98;5.47;;;;;;;19.86;67.21;101623.53;5030260;28;20059;-73
2022/08/02 08:04:05;;;;;;;7.60;4.75;;;;;;;19.98;65.19;101626.50;5030579;28;20072;-73
2022/08/02 08:06:30;;;;;;;10.30;4.85;;;;;;;20.02;64.66;101622.75;5030084;28;20036;-74
2022/08/02 08:08:56;;;;;;;7.15;4.72;;;;;;;20.09;64.45;101618.84;5029750;28;20376;-73
2022/08/02 08:11:21;;;;;;;8.82;4.95;;;;;;;20.16;64.91;101620.22;5027952;28;20033;-73
2022/08/02 08:13:47;;;;;;;5.93;3.80;;;;;;;20.24;64.44;101617.16;5031394;28;20025;-73
2022/08/02 08:16:12;;;;;;;6.75;3.55;;;;;;;20.32;63.99;101609.69;5033149;28;21952;-73
2022/08/02 08:18:37;;;;;;;5.90;3.80;;;;;;;20.42;64.14;101615.31;5032785;28;20041;-73
2022/08/02 08:21:03;;;;;;;6.50;3.95;;;;;;;20.53;63.59;101613.84;5032736;28;20021;-73
2022/08/02 08:23:29;;;;;;;6.50;4.13;;;;;;;20.59;62.99;101606.44;5032936;28;20561;-74
2022/08/02 08:25:54;;;;;;;8.10;4.68;;;;;;;20.65;63.92;101604.38;5031904;28;20118;-73
2022/08/02 08:28:19;;;;;;;7.78;4.25;;;;;;;20.71;63.37;101596.13;5032066;28;20361;-73
2022/08/02 08:30:46;;;;;;;6.20;3.10;;;;;;;20.80;60.39;101602.72;5032582;28;20056;-73
2022/08/02 08:33:12;;;;;;;6.80;3.50;;;;;;;20.88;60.02;101603.09;5032921;28;20030;-74
2022/08/02 08:35:38;;;;;;;6.03;3.45;;;;;;;20.97;63.11;101607.03;5031783;28;20060;-73
2022/08/02 08:38:04;;;;;;;6.80;4.43;;;;;;;21.05;62.60;101597.69;5033567;28;20045;-74
2022/08/02 08:40:30;;;;;;;6.95;4.53;;;;;;;21.07;61.82;101597.63;5032074;28;20025;-73
2022/08/02 08:42:55;;;;;;;6.82;4.40;;;;;;;21.11;61.04;101600.94;5030256;28;20087;-74
2022/08/02 08:45:21;;;;;;;8.68;4.53;;;;;;;21.16;61.68;101596.25;5031844;28;20044;-74
2022/08/02 08:47:52;;;;;;;6.15;4.00;;;;;;;21.20;62.38;101600.38;5028615;28;20036;-73
2022/08/02 08:50:24;;;;;;;5.28;3.50;;;;;;;21.26;61.57;101604.50;5026613;28;20398;-74
2022/08/02 08:53:08;;;;;;;4.82;3.35;;;;;;;21.31;62.01;101600.63;5027381;28;20033;-74
2022/08/02 08:55:35;;;;;;;4.00;2.70;;;;;;;21.38;61.10;101604.59;5025995;28;21259;-74
2022/08/02 08:58:02;;;;;;;3.50;2.30;;;;;;;21.53;59.62;101599.31;5028854;28;20021;-73
2022/08/02 09:00:34;;;;;;;4.65;2.10;;;;;;;21.63;59.20;101608.47;5029973;28;20385;-74
2022/08/02 09:03:04;;;;;;;3.58;2.47;;;;;;;21.70;61.37;101608.06;5027533;28;20068;-74
2022/08/02 09:05:29;;;;;;;5.30;2.72;;;;;;;21.76;60.80;101597.97;5028089;28;20470;-73
2022/08/02 09:07:54;;;;;;;4.65;2.80;;;;;;;21.83;59.82;101604.59;5027803;28;20025;-74
2022/08/02 09:10:41;;;;;;;5.07;2.50;;;;;;;21.90;60.16;101602.41;5029370;28;20067;-74
2022/08/02 09:13:09;;;;;;;5.50;2.63;;;;;;;21.91;58.53;101598.81;5026005;28;20100;-74
2022/08/02 09:15:36;;;;;;;5.88;2.40;;;;;;;21.96;59.92;101603.81;5025501;28;20116;-74
2022/08/02 09:18:04;;;;;;;3.42;2.22;;;;;;;22.03;57.87;101591.06;5029592;28;20053;-74
2022/08/02 09:20:29;;;;;;;3.38;2.00;;;;;;;22.08;57.89;101602.22;5029324;28;20017;-73
2022/08/02 09:23:09;;;;;;;4.25;2.55;;;;;;;22.09;57.81;101595.97;5030069;28;20032;-74
2022/08/02 09:25:35;;;;;;;5.18;2.20;;;;;;;22.10;57.53;101597.66;5029136;28;20033;-75
2022/08/02 09:28:02;;;;;;;4.28;2.33;;;;;;;22.22;56.99;101599.53;5024998;28;20037;-74
2022/08/02 09:30:27;;;;;;;8.00;2.30;;;;;;;22.44;57.09;101592.91;5027422;28;20029;-74
2022/08/02 09:32:52;;;;;;;7.40;2.40;;;;;;;22.52;54.76;101606.53;5029434;28;20035;-74
2022/08/02 09:35:58;;;;;;;3.05;2.10;;;;;;;22.65;55.47;101603.91;5027976;28;20108;-73
2022/08/02 09:38:23;;;;;;;4.15;2.00;;;;;;;22.72;54.08;101599.06;4996820;28;20053;-74
2022/08/02 09:40:48;;;;;;;5.07;2.10;;;;;;;22.71;53.64;101594.75;5027572;28;20056;-73
2022/08/02 09:43:15;;;;;;;6.28;2.03;;;;;;;22.70;52.10;101608.94;5026862;28;20028;-74
2022/08/02 09:45:40;;;;;;;5.88;1.92;;;;;;;22.71;52.69;101597.38;5026139;28;20033;-74
2022/08/02 09:48:07;;;;;;;4.03;1.80;;;;;;;22.80;52.98;101599.44;5027138;28;20064;-74
2022/08/02 09:50:33;;;;;;;4.22;1.80;;;;;;;22.81;52.06;101601.13;5041120;28;20463;-74
2022/08/02 09:52:58;;;;;;;4.05;1.80;;;;;;;22.89;52.08;101593.50;5027689;28;20032;-74
2022/08/02 09:55:25;;;;;;;3.90;2.10;;;;;;;22.97;51.96;101597.47;5028685;28;20029;-74
2022/08/02 09:57:50;;;;;;;3.25;1.90;;;;;;;23.00;52.62;101599.91;5026096;28;20115;-73
2022/08/02 10:00:16;;;;;;;3.05;1.77;;;;;;;23.08;53.22;101591.44;5026049;28;20461;-74
2022/08/02 10:03:10;;;;;;;3.05;1.60;;;;;;;23.21;52.69;101605.63;5026496;28;20456;-74
2022/08/02 10:05:50;;;;;;;3.15;1.75;;;;;;;23.22;51.54;101603.81;5025380;28;20103;-73
2022/08/02 10:08:16;;;;;;;6.03;1.58;;;;;;;23.18;49.14;101598.69;5026157;28;20033;-73
2022/08/02 10:10:42;;;;;;;4.03;1.70;;;;;;;23.17;49.26;101596.97;5042167;28;20040;-74
2022/08/02 10:13:08;;;;;;;6.05;1.55;;;;;;;23.16;45.95;101605.91;5028380;28;20581;-74
2022/08/02 10:15:35;;;;;;;3.05;1.42;;;;;;;23.26;43.51;101600.84;5027554;28;20029;-74
2022/08/02 10:18:00;;;;;;;5.50;1.20;;;;;;;23.28;41.73;101598.94;5027799;28;20033;-73
2022/08/02 10:20:25;;;;;;;3.90;1.15;;;;;;;23.36;43.34;101598.41;5027143;28;20045;-74
2022/08/02 10:22:52;;;;;;;3.92;1.10;;;;;;;23.48;42.54;101589.59;5026566;28;20025;-74
2022/08/02 10:25:19;;;;;;;2.78;1.08;;;;;;;23.62;41.94;101590.44;5027469;28;20104;-74
2022/08/02 10:27:45;;;;;;;4.28;1.35;;;;;;;23.67;41.84;101593.66;5027469;28;20189;-74
2022/08/02 10:30:10;;;;;;;3.38;1.15;;;;;;;23.71;41.36;101584.50;5026176;28;20188;-74
2022/08/02 10:32:41;;;;;;;4.20;1.08;;;;;;;23.86;41.22;101595.00;5027308;28;20540;-74
2022/08/02 10:35:10;;;;;;;6.90;1.30;;;;;;;23.96;40.69;101588.09;5026627;28;20033;-74
2022/08/02 10:37:38;;;;;;;3.80;1.17;;;;;;;24.04;39.87;101584.91;5027241;28;20053;-74
2022/08/02 10:40:05;;;;;;;3.10;1.00;;;;;;;24.02;39.74;101593.00;5027257;28;20033;-74
2022/08/02 10:42:45;;;;;;;4.35;1.25;;;;;;;24.07;39.99;101590.00;5030671;28;20033;-74
2022/08/02 10:45:14;;;;;;;3.00;1.10;;;;;;;24.08;39.37;101584.56;5030084;28;20040;-74
2022/08/02 10:47:55;;;;;;;1.55;1.00;;;;;;;24.08;40.63;101579.25;5029616;28;21881;-74
2022/08/02 10:50:20;;;;;;;3.95;1.00;;;;;;;24.15;39.60;101584.16;5029848;28;20022;-74
2022/08/02 10:52:45;;;;;;;7.50;1.20;;;;;;;24.19;39.30;101583.81;5031584;28;20025;-74
2022/08/02 10:55:13;;;;;;;2.72;1.00;;;;;;;24.18;41.00;101581.28;5032141;28;20494;-74
2022/08/02 10:57:38;;;;;;;5.28;1.30;;;;;;;24.22;40.42;101582.75;5030660;28;20113;-74
2022/08/02 11:00:24;;;;;;;2.45;0.90;;;;;;;24.22;40.77;101580.09;5033515;28;20093;-74
2022/08/02 11:02:50;;;;;;;4.38;1.20;;;;;;;24.21;38.75;101586.38;5031965;28;20457;-74
2022/08/02 11:05:27;;;;;;;5.30;1.15;;;;;;;24.16;39.05;101583.19;5032402;28;20052;-74
2022/08/02 11:07:52;;;;;;;2.85;1.10;;;;;;;24.17;38.29;101583.06;5031654;28;20465;-74
2022/08/02 11:10:23;;;;;;;2.75;1.10;;;;;;;24.28;39.59;101582.28;5029635;28;20041;-74
2022/08/02 11:13:00;;;;;;;5.75;1.25;;;;;;;24.33;38.62;101582.81;5026096;28;20029;-74
2022/08/02 11:15:26;;;;;;;1.35;1.00;;;;;;;24.39;38.56;101581.50;5030306;28;20086;-74
2022/08/02 11:17:57;;;;;;;2.67;1.00;;;;;;;24.50;40.34;101580.72;5024862;28;20025;-74
2022/08/02 11:20:24;;;;;;;1.85;0.90;;;;;;;24.57;37.34;101575.81;5026381;28;20021;-74
2022/08/02 11:22:53;;;;;;;5.65;1.00;;;;;;;24.68;39.06;101568.72;5023141;28;20037;-73
2022/08/02 11:25:25;;;;;;;5.20;1.00;;;;;;;24.81;38.35;101570.50;5026557;28;20025;-74
2022/08/02 11:27:55;;;;;;;3.00;1.00;;;;;;;24.84;36.96;101570.28;5028316;28;20037;-74